CYHZ

Halifax / Stanfield International Airport

Halifax, Nova Scotia, Canada
TAF CYHZ 260238Z 2603/2624 18015KT P6SM SCT020 OVC050 TEMPO 2603/2608 P6SM -RA BKN020 OVC050 FM260800 15015KT WS007/17035KT 6SM -RA BR OVC015 PROB30 2608/2611 BKN005 FM261200 14015G30KT 3SM -RA BR OVC005 FM261500 15020G40KT 2SM RA BR BKN003 OVC005 FM261800 18020G30KT 3/4SM -DZ BR OVC002 RMK NXT FCST BY 260600Z
Issued Valid From Valid To
Apr-26 @ 02:38 UTC
(an hour ago)
Apr-26 @ 03:00 UTC
(40 minutes ago)
Apr-27 @ 00:00 UTC
(in 20 hours)
Apr-26 @ 03:00 to Apr-26 @ 08:00
TAF CYHZ 260238Z 2603/2624 18015KT P6SM SCT020 OVC050
Wind Visibility Clouds
180° at 15 knots Greater than 6 miles
  • Scattered at 2,000' AGL
  • Overcast at 5,000' AGL
Temporary Apr-26 @ 03:00 to Apr-26 @ 08:00
TEMPO 2603/2608 P6SM -RA BKN020 OVC050
Visibility Clouds Conditions
Greater than 6 miles
  • Broken at 2,000' AGL
  • Overcast at 5,000' AGL
  • Light Rain
Probable  (Probability 30%) Apr-26 @ 08:00 to Apr-26 @ 11:00
PROB30 2608/2611 BKN005
Clouds
  • Broken at 500' AGL
From Apr-26 @ 08:00 to Apr-26 @ 12:00
FM260800 15015KT WS007/17035KT 6SM -RA BR OVC015
Wind Visibility Clouds Conditions
150° at 15 knots
 Wind shear 700' AGL from 170° at 35 knots
6 miles
  • Overcast at 1,500' AGL
  • Light Rain
  • Mist
From Apr-26 @ 12:00 to Apr-26 @ 15:00
FM261200 14015G30KT 3SM -RA BR OVC005
Wind Visibility Clouds Conditions
140° at 15 knots
 Gusting to 30 knots
3 miles
  • Overcast at 500' AGL
  • Light Rain
  • Mist
From Apr-26 @ 15:00 to Apr-26 @ 18:00
FM261500 15020G40KT 2SM RA BR BKN003 OVC005
Wind Visibility Clouds Conditions
150° at 20 knots
 Gusting to 40 knots
2 miles
  • Broken at 300' AGL
  • Overcast at 500' AGL
  • Rain
  • Mist
From Apr-26 @ 18:00 to Apr-27 @ 00:00
FM261800 18020G30KT 3/4SM -DZ BR OVC002 RMK NXT FCST BY 260600Z
Wind Visibility Clouds Conditions
180° at 20 knots
 Gusting to 30 knots
3/4 miles
  • Overcast at 200' AGL
  • Light Drizzle
  • Mist
TAF CYHZ 260238Z 2603/2624 18015KT P6SM SCT020 OVC050 TEMPO 2603/2608 P6SM -RA BKN020 OVC050 FM260800 15015KT WS007/17035KT 6SM -RA BR OVC015 PROB30 2608/2611 BKN005 FM261200 14015G30KT 3SM -RA BR OVC005 FM261500 15020G40KT 2SM RA BR BKN003 OVC005 FM261800 18020G30KT 3/4SM -DZ BR OVC002 RMK NXT FCST BY 260600Z
Issued Apr-26 @ 02:38 UTC
(an hour ago)
Valid From Apr-26 @ 03:00 UTC
(40 minutes ago)
Valid To Apr-27 @ 00:00 UTC
(in 20 hours)
Apr-26 @ 03:00 - Apr-26 @ 08:00
Wind Visibility
180° at 15 knots Greater than 6 miles
Clouds
  • Scattered at 2,000' AGL
  • Overcast at 5,000' AGL
Temporary Apr-26 @ 03:00 - Apr-26 @ 08:00
Clouds
  • Broken at 2,000' AGL
  • Overcast at 5,000' AGL
Conditions
  • Light Rain
Probability 30% Probable Apr-26 @ 08:00 - Apr-26 @ 11:00
Clouds
  • Broken at 500' AGL
From Apr-26 @ 08:00 - Apr-26 @ 12:00
Wind Visibility
150° at 15 knots 6 miles
Clouds
  • Overcast at 1,500' AGL
Conditions
  • Light Rain
  • Mist
From Apr-26 @ 12:00 - Apr-26 @ 15:00
Wind Visibility
140° at 15 knots
 Gusting to 30 knots
3 miles
Clouds
  • Overcast at 500' AGL
Conditions
  • Light Rain
  • Mist
From Apr-26 @ 15:00 - Apr-26 @ 18:00
Wind Visibility
150° at 20 knots
 Gusting to 40 knots
2 miles
Clouds
  • Broken at 300' AGL
  • Overcast at 500' AGL
Conditions
  • Rain
  • Mist
From Apr-26 @ 18:00 - Apr-27 @ 00:00
Wind Visibility
180° at 20 knots
 Gusting to 30 knots
3/4 miles
Clouds
  • Overcast at 200' AGL
Conditions
  • Light Drizzle
  • Mist